sensor_id;sensor_type;location;lat;lon;timestamp;P1;durP1;ratioP1;P2;durP2;ratioP2
52742;SDS011;55583;53.012;6.556;2022-12-18T00:01:57;172.32;;;44.92;;
52742;SDS011;55583;53.012;6.556;2022-12-18T00:04:24;170.25;;;45.00;;
52742;SDS011;55583;53.012;6.556;2022-12-18T00:06:51;130.93;;;38.75;;
52742;SDS011;55583;53.012;6.556;2022-12-18T00:09:17;163.07;;;44.47;;
52742;SDS011;55583;53.012;6.556;2022-12-18T00:11:44;166.40;;;42.67;;
52742;SDS011;55583;53.012;6.556;2022-12-18T00:14:12;138.32;;;39.47;;
52742;SDS011;55583;53.012;6.556;2022-12-18T00:16:38;146.98;;;45.05;;
52742;SDS011;55583;53.012;6.556;2022-12-18T00:19:05;152.52;;;41.33;;
52742;SDS011;55583;53.012;6.556;2022-12-18T00:21:32;134.50;;;40.72;;
52742;SDS011;55583;53.012;6.556;2022-12-18T00:23:59;143.50;;;38.13;;
52742;SDS011;55583;53.012;6.556;2022-12-18T00:26:29;135.02;;;41.60;;
52742;SDS011;55583;53.012;6.556;2022-12-18T00:29:00;130.13;;;39.30;;
52742;SDS011;55583;53.012;6.556;2022-12-18T00:31:26;145.20;;;42.08;;
52742;SDS011;55583;53.012;6.556;2022-12-18T00:33:56;133.40;;;40.47;;
52742;SDS011;55583;53.012;6.556;2022-12-18T00:36:27;135.85;;;38.00;;
52742;SDS011;55583;53.012;6.556;2022-12-18T00:38:55;122.35;;;41.67;;
52742;SDS011;55583;53.012;6.556;2022-12-18T00:41:22;142.55;;;40.55;;
52742;SDS011;55583;53.012;6.556;2022-12-18T00:44:07;138.50;;;40.10;;
52742;SDS011;55583;53.012;6.556;2022-12-18T00:46:35;134.05;;;42.05;;
52742;SDS011;55583;53.012;6.556;2022-12-18T00:49:02;158.48;;;45.00;;
52742;SDS011;55583;53.012;6.556;2022-12-18T00:51:28;141.85;;;40.47;;
52742;SDS011;55583;53.012;6.556;2022-12-18T00:53:54;152.82;;;42.70;;
52742;SDS011;55583;53.012;6.556;2022-12-18T00:56:19;149.07;;;43.88;;
52742;SDS011;55583;53.012;6.556;2022-12-18T00:58:48;143.35;;;41.45;;
52742;SDS011;55583;53.012;6.556;2022-12-18T01:01:14;150.02;;;43.80;;
52742;SDS011;55583;53.012;6.556;2022-12-18T01:03:40;158.60;;;42.53;;
52742;SDS011;55583;53.012;6.556;2022-12-18T01:06:09;152.35;;;41.55;;
52742;SDS011;55583;53.012;6.556;2022-12-18T01:08:37;154.95;;;43.92;;
52742;SDS011;55583;53.012;6.556;2022-12-18T01:11:07;145.75;;;41.60;;
52742;SDS011;55583;53.012;6.556;2022-12-18T01:13:34;128.85;;;39.65;;
52742;SDS011;55583;53.012;6.556;2022-12-18T01:16:00;153.13;;;41.42;;
52742;SDS011;55583;53.012;6.556;2022-12-18T01:18:25;149.88;;;42.38;;
52742;SDS011;55583;53.012;6.556;2022-12-18T01:20:51;138.38;;;40.95;;
52742;SDS011;55583;53.012;6.556;2022-12-18T01:23:17;148.15;;;43.80;;
52742;SDS011;55583;53.012;6.556;2022-12-18T01:25:42;152.07;;;45.10;;
52742;SDS011;55583;53.012;6.556;2022-12-18T01:28:08;152.93;;;42.25;;
52742;SDS011;55583;53.012;6.556;2022-12-18T01:30:33;144.82;;;41.55;;
52742;SDS011;55583;53.012;6.556;2022-12-18T01:32:59;134.98;;;41.28;;
52742;SDS011;55583;53.012;6.556;2022-12-18T01:35:25;156.68;;;42.33;;
52742;SDS011;55583;53.012;6.556;2022-12-18T01:37:53;143.20;;;39.38;;
52742;SDS011;55583;53.012;6.556;2022-12-18T01:40:20;146.23;;;44.17;;
52742;SDS011;55583;53.012;6.556;2022-12-18T01:42:49;133.70;;;38.45;;
52742;SDS011;55583;53.012;6.556;2022-12-18T01:47:55;143.38;;;40.15;;
52742;SDS011;55583;53.012;6.556;2022-12-18T01:50:25;159.75;;;46.15;;
52742;SDS011;55583;53.012;6.556;2022-12-18T01:52:53;160.75;;;42.67;;
52742;SDS011;55583;53.012;6.556;2022-12-18T01:55:22;163.18;;;43.47;;
52742;SDS011;55583;53.012;6.556;2022-12-18T01:57:52;156.43;;;42.80;;
52742;SDS011;55583;53.012;6.556;2022-12-18T02:00:20;154.02;;;43.63;;
52742;SDS011;55583;53.012;6.556;2022-12-18T02:02:46;155.15;;;44.50;;
52742;SDS011;55583;53.012;6.556;2022-12-18T02:05:15;153.57;;;44.47;;
52742;SDS011;55583;53.012;6.556;2022-12-18T02:18:53;164.82;;;46.67;;
52742;SDS011;55583;53.012;6.556;2022-12-18T02:21:36;154.48;;;43.63;;
52742;SDS011;55583;53.012;6.556;2022-12-18T02:27:16;172.63;;;47.53;;
52742;SDS011;55583;53.012;6.556;2022-12-18T02:29:44;157.70;;;45.10;;
52742;SDS011;55583;53.012;6.556;2022-12-18T02:34:42;151.90;;;42.92;;
52742;SDS011;55583;53.012;6.556;2022-12-18T02:37:10;150.80;;;41.78;;
52742;SDS011;55583;53.012;6.556;2022-12-18T02:39:40;136.65;;;43.10;;
52742;SDS011;55583;53.012;6.556;2022-12-18T02:42:08;156.05;;;45.55;;
52742;SDS011;55583;53.012;6.556;2022-12-18T02:44:35;161.30;;;47.45;;
52742;SDS011;55583;53.012;6.556;2022-12-18T02:47:08;155.18;;;47.05;;
52742;SDS011;55583;53.012;6.556;2022-12-18T03:00:08;151.70;;;44.55;;
52742;SDS011;55583;53.012;6.556;2022-12-18T03:02:41;138.45;;;43.58;;
52742;SDS011;55583;53.012;6.556;2022-12-18T03:05:19;155.70;;;44.28;;
52742;SDS011;55583;53.012;6.556;2022-12-18T03:08:06;154.38;;;45.63;;
52742;SDS011;55583;53.012;6.556;2022-12-18T03:11:02;156.02;;;45.40;;
52742;SDS011;55583;53.012;6.556;2022-12-18T03:13:37;160.85;;;44.55;;
52742;SDS011;55583;53.012;6.556;2022-12-18T03:16:15;167.20;;;46.03;;
52742;SDS011;55583;53.012;6.556;2022-12-18T03:19:31;171.85;;;45.40;;
52742;SDS011;55583;53.012;6.556;2022-12-18T03:21:35;149.07;;;44.83;;
52742;SDS011;55583;53.012;6.556;2022-12-18T03:24:07;166.13;;;45.00;;
52742;SDS011;55583;53.012;6.556;2022-12-18T03:26:36;170.45;;;45.97;;
52742;SDS011;55583;53.012;6.556;2022-12-18T03:29:07;175.77;;;48.38;;
52742;SDS011;55583;53.012;6.556;2022-12-18T03:31:42;181.00;;;46.85;;
52742;SDS011;55583;53.012;6.556;2022-12-18T03:34:14;160.00;;;44.42;;
52742;SDS011;55583;53.012;6.556;2022-12-18T03:36:44;156.55;;;43.15;;
52742;SDS011;55583;53.012;6.556;2022-12-18T03:39:10;155.75;;;44.83;;
52742;SDS011;55583;53.012;6.556;2022-12-18T03:41:43;156.18;;;45.40;;
52742;SDS011;55583;53.012;6.556;2022-12-18T03:44:23;158.82;;;44.17;;
52742;SDS011;55583;53.012;6.556;2022-12-18T03:50:14;153.57;;;43.13;;
52742;SDS011;55583;53.012;6.556;2022-12-18T03:55:16;154.63;;;45.22;;
52742;SDS011;55583;53.012;6.556;2022-12-18T03:57:44;147.60;;;44.58;;
52742;SDS011;55583;53.012;6.556;2022-12-18T04:00:11;160.18;;;43.95;;
52742;SDS011;55583;53.012;6.556;2022-12-18T04:02:39;137.55;;;43.47;;
52742;SDS011;55583;53.012;6.556;2022-12-18T04:05:09;159.02;;;42.42;;
52742;SDS011;55583;53.012;6.556;2022-12-18T04:07:36;161.77;;;44.00;;
52742;SDS011;55583;53.012;6.556;2022-12-18T04:10:05;163.00;;;42.67;;
52742;SDS011;55583;53.012;6.556;2022-12-18T04:12:32;146.15;;;45.08;;
52742;SDS011;55583;53.012;6.556;2022-12-18T04:14:58;144.93;;;42.05;;
52742;SDS011;55583;53.012;6.556;2022-12-18T04:17:23;150.27;;;45.15;;
52742;SDS011;55583;53.012;6.556;2022-12-18T04:19:50;137.25;;;40.83;;
52742;SDS011;55583;53.012;6.556;2022-12-18T04:22:15;138.70;;;44.03;;
52742;SDS011;55583;53.012;6.556;2022-12-18T04:24:41;155.40;;;42.15;;
52742;SDS011;55583;53.012;6.556;2022-12-18T04:27:07;145.90;;;43.65;;
52742;SDS011;55583;53.012;6.556;2022-12-18T04:29:32;157.40;;;41.53;;
52742;SDS011;55583;53.012;6.556;2022-12-18T04:31:58;139.35;;;40.58;;
52742;SDS011;55583;53.012;6.556;2022-12-18T04:34:24;133.60;;;41.30;;
52742;SDS011;55583;53.012;6.556;2022-12-18T04:36:49;135.77;;;40.22;;
52742;SDS011;55583;53.012;6.556;2022-12-18T04:39:18;126.28;;;39.88;;
52742;SDS011;55583;53.012;6.556;2022-12-18T04:41:44;133.38;;;39.55;;
52742;SDS011;55583;53.012;6.556;2022-12-18T04:44:09;132.20;;;40.65;;
52742;SDS011;55583;53.012;6.556;2022-12-18T04:46:35;136.27;;;39.88;;
52742;SDS011;55583;53.012;6.556;2022-12-18T04:49:01;130.20;;;40.78;;
52742;SDS011;55583;53.012;6.556;2022-12-18T04:51:26;129.43;;;38.55;;
52742;SDS011;55583;53.012;6.556;2022-12-18T04:53:52;114.90;;;36.42;;
52742;SDS011;55583;53.012;6.556;2022-12-18T04:56:18;117.60;;;35.55;;
52742;SDS011;55583;53.012;6.556;2022-12-18T04:58:44;122.47;;;36.75;;
52742;SDS011;55583;53.012;6.556;2022-12-18T05:01:10;115.95;;;38.17;;
52742;SDS011;55583;53.012;6.556;2022-12-18T05:03:39;112.60;;;36.05;;
52742;SDS011;55583;53.012;6.556;2022-12-18T05:06:05;116.20;;;36.00;;
52742;SDS011;55583;53.012;6.556;2022-12-18T05:08:32;134.45;;;39.25;;
52742;SDS011;55583;53.012;6.556;2022-12-18T05:11:05;118.15;;;37.22;;
52742;SDS011;55583;53.012;6.556;2022-12-18T05:13:37;105.32;;;34.65;;
52742;SDS011;55583;53.012;6.556;2022-12-18T05:16:03;100.65;;;37.45;;
52742;SDS011;55583;53.012;6.556;2022-12-18T05:18:30;102.47;;;35.97;;
52742;SDS011;55583;53.012;6.556;2022-12-18T05:20:56;94.97;;;32.63;;
52742;SDS011;55583;53.012;6.556;2022-12-18T05:23:22;96.35;;;33.70;;
52742;SDS011;55583;53.012;6.556;2022-12-18T05:25:53;109.25;;;35.55;;
52742;SDS011;55583;53.012;6.556;2022-12-18T05:28:27;89.05;;;31.92;;
52742;SDS011;55583;53.012;6.556;2022-12-18T05:30:56;98.63;;;33.53;;
52742;SDS011;55583;53.012;6.556;2022-12-18T05:33:24;98.80;;;34.42;;
52742;SDS011;55583;53.012;6.556;2022-12-18T05:35:55;93.05;;;31.80;;
52742;SDS011;55583;53.012;6.556;2022-12-18T05:38:23;102.50;;;33.05;;
52742;SDS011;55583;53.012;6.556;2022-12-18T05:40:50;88.57;;;32.20;;
52742;SDS011;55583;53.012;6.556;2022-12-18T05:43:17;93.22;;;32.83;;
52742;SDS011;55583;53.012;6.556;2022-12-18T05:45:44;102.50;;;32.33;;
52742;SDS011;55583;53.012;6.556;2022-12-18T05:48:13;81.03;;;30.13;;
52742;SDS011;55583;53.012;6.556;2022-12-18T05:50:40;94.25;;;30.95;;
52742;SDS011;55583;53.012;6.556;2022-12-18T05:53:07;89.07;;;30.80;;
52742;SDS011;55583;53.012;6.556;2022-12-18T05:55:37;77.97;;;30.55;;
52742;SDS011;55583;53.012;6.556;2022-12-18T05:58:04;86.57;;;29.08;;
52742;SDS011;55583;53.012;6.556;2022-12-18T06:00:34;90.57;;;30.40;;
52742;SDS011;55583;53.012;6.556;2022-12-18T06:03:04;82.88;;;30.63;;
52742;SDS011;55583;53.012;6.556;2022-12-18T06:05:34;74.40;;;27.02;;
52742;SDS011;55583;53.012;6.556;2022-12-18T06:08:04;94.10;;;30.38;;
52742;SDS011;55583;53.012;6.556;2022-12-18T06:10:30;80.03;;;27.52;;
52742;SDS011;55583;53.012;6.556;2022-12-18T06:12:56;81.45;;;26.45;;
52742;SDS011;55583;53.012;6.556;2022-12-18T06:15:22;79.28;;;28.90;;
52742;SDS011;55583;53.012;6.556;2022-12-18T06:17:47;79.38;;;27.50;;
52742;SDS011;55583;53.012;6.556;2022-12-18T06:20:13;79.43;;;28.73;;
52742;SDS011;55583;53.012;6.556;2022-12-18T06:22:39;83.40;;;27.48;;
52742;SDS011;55583;53.012;6.556;2022-12-18T06:25:04;81.38;;;27.35;;
52742;SDS011;55583;53.012;6.556;2022-12-18T06:27:31;69.18;;;27.10;;
52742;SDS011;55583;53.012;6.556;2022-12-18T06:29:58;86.05;;;27.83;;
52742;SDS011;55583;53.012;6.556;2022-12-18T06:32:24;84.70;;;27.70;;
52742;SDS011;55583;53.012;6.556;2022-12-18T06:34:50;71.40;;;27.38;;
52742;SDS011;55583;53.012;6.556;2022-12-18T06:37:16;79.43;;;27.63;;
52742;SDS011;55583;53.012;6.556;2022-12-18T06:39:41;88.03;;;29.55;;
52742;SDS011;55583;53.012;6.556;2022-12-18T06:42:07;79.68;;;29.63;;
52742;SDS011;55583;53.012;6.556;2022-12-18T06:44:33;76.90;;;28.63;;
52742;SDS011;55583;53.012;6.556;2022-12-18T06:46:58;77.47;;;30.60;;
52742;SDS011;55583;53.012;6.556;2022-12-18T06:49:24;72.22;;;27.70;;
52742;SDS011;55583;53.012;6.556;2022-12-18T06:51:50;88.18;;;29.13;;
52742;SDS011;55583;53.012;6.556;2022-12-18T06:54:15;83.53;;;29.52;;
52742;SDS011;55583;53.012;6.556;2022-12-18T06:56:41;72.60;;;28.10;;
52742;SDS011;55583;53.012;6.556;2022-12-18T06:59:07;69.07;;;28.02;;
52742;SDS011;55583;53.012;6.556;2022-12-18T07:01:32;77.72;;;29.45;;
52742;SDS011;55583;53.012;6.556;2022-12-18T07:03:58;83.60;;;28.67;;
52742;SDS011;55583;53.012;6.556;2022-12-18T07:06:24;72.97;;;30.38;;
52742;SDS011;55583;53.012;6.556;2022-12-18T07:08:51;80.38;;;29.40;;
52742;SDS011;55583;53.012;6.556;2022-12-18T07:11:19;71.32;;;28.17;;
52742;SDS011;55583;53.012;6.556;2022-12-18T07:13:45;81.82;;;28.38;;
52742;SDS011;55583;53.012;6.556;2022-12-18T07:16:12;84.25;;;29.80;;
52742;SDS011;55583;53.012;6.556;2022-12-18T07:18:40;71.97;;;28.80;;
52742;SDS011;55583;53.012;6.556;2022-12-18T07:21:06;74.32;;;28.05;;
52742;SDS011;55583;53.012;6.556;2022-12-18T07:23:34;76.35;;;25.98;;
52742;SDS011;55583;53.012;6.556;2022-12-18T07:26:04;71.45;;;28.05;;
52742;SDS011;55583;53.012;6.556;2022-12-18T07:28:38;83.57;;;28.58;;
52742;SDS011;55583;53.012;6.556;2022-12-18T07:31:09;75.55;;;27.90;;
52742;SDS011;55583;53.012;6.556;2022-12-18T07:33:42;81.63;;;29.17;;
52742;SDS011;55583;53.012;6.556;2022-12-18T07:36:09;70.75;;;27.83;;
52742;SDS011;55583;53.012;6.556;2022-12-18T07:38:35;64.88;;;25.40;;
52742;SDS011;55583;53.012;6.556;2022-12-18T07:41:11;70.57;;;26.20;;
52742;SDS011;55583;53.012;6.556;2022-12-18T07:43:37;70.75;;;27.25;;
52742;SDS011;55583;53.012;6.556;2022-12-18T07:46:03;69.50;;;28.58;;
52742;SDS011;55583;53.012;6.556;2022-12-18T07:48:30;70.10;;;26.60;;
52742;SDS011;55583;53.012;6.556;2022-12-18T07:50:59;67.70;;;26.75;;
52742;SDS011;55583;53.012;6.556;2022-12-18T07:53:25;77.90;;;29.63;;
52742;SDS011;55583;53.012;6.556;2022-12-18T07:55:58;60.53;;;24.98;;
52742;SDS011;55583;53.012;6.556;2022-12-18T07:58:25;65.90;;;26.77;;
52742;SDS011;55583;53.012;6.556;2022-12-18T08:00:51;75.05;;;27.33;;
52742;SDS011;55583;53.012;6.556;2022-12-18T08:03:17;70.50;;;27.67;;
52742;SDS011;55583;53.012;6.556;2022-12-18T08:05:44;62.95;;;25.58;;
52742;SDS011;55583;53.012;6.556;2022-12-18T08:08:09;66.90;;;26.30;;
52742;SDS011;55583;53.012;6.556;2022-12-18T08:10:35;59.80;;;25.55;;
52742;SDS011;55583;53.012;6.556;2022-12-18T08:13:02;67.80;;;26.55;;
52742;SDS011;55583;53.012;6.556;2022-12-18T08:15:27;61.55;;;24.73;;
52742;SDS011;55583;53.012;6.556;2022-12-18T08:17:55;70.30;;;26.88;;
52742;SDS011;55583;53.012;6.556;2022-12-18T08:20:21;72.10;;;24.75;;
52742;SDS011;55583;53.012;6.556;2022-12-18T08:22:47;62.70;;;24.90;;
52742;SDS011;55583;53.012;6.556;2022-12-18T08:25:13;66.20;;;24.80;;
52742;SDS011;55583;53.012;6.556;2022-12-18T08:27:39;58.42;;;24.02;;
52742;SDS011;55583;53.012;6.556;2022-12-18T08:30:04;60.40;;;25.10;;
52742;SDS011;55583;53.012;6.556;2022-12-18T08:32:31;68.30;;;25.10;;
52742;SDS011;55583;53.012;6.556;2022-12-18T08:34:58;60.80;;;23.15;;
52742;SDS011;55583;53.012;6.556;2022-12-18T08:37:23;57.78;;;23.02;;
52742;SDS011;55583;53.012;6.556;2022-12-18T08:39:49;66.47;;;25.55;;
52742;SDS011;55583;53.012;6.556;2022-12-18T08:42:15;57.95;;;22.75;;
52742;SDS011;55583;53.012;6.556;2022-12-18T08:44:59;56.15;;;23.15;;
52742;SDS011;55583;53.012;6.556;2022-12-18T08:47:25;51.65;;;22.23;;
52742;SDS011;55583;53.012;6.556;2022-12-18T08:49:51;65.47;;;24.63;;
52742;SDS011;55583;53.012;6.556;2022-12-18T08:52:16;56.42;;;23.27;;
52742;SDS011;55583;53.012;6.556;2022-12-18T08:54:42;57.10;;;23.00;;
52742;SDS011;55583;53.012;6.556;2022-12-18T08:57:08;47.75;;;20.95;;
52742;SDS011;55583;53.012;6.556;2022-12-18T08:59:33;50.47;;;21.23;;
52742;SDS011;55583;53.012;6.556;2022-12-18T09:01:59;51.03;;;22.52;;
52742;SDS011;55583;53.012;6.556;2022-12-18T09:04:24;56.67;;;22.65;;
52742;SDS011;55583;53.012;6.556;2022-12-18T09:06:50;52.72;;;22.30;;
52742;SDS011;55583;53.012;6.556;2022-12-18T09:09:16;57.55;;;21.70;;
52742;SDS011;55583;53.012;6.556;2022-12-18T09:11:41;56.75;;;22.05;;
52742;SDS011;55583;53.012;6.556;2022-12-18T09:14:08;45.35;;;20.40;;
52742;SDS011;55583;53.012;6.556;2022-12-18T09:16:34;48.08;;;21.92;;
52742;SDS011;55583;53.012;6.556;2022-12-18T09:19:01;48.90;;;21.95;;
52742;SDS011;55583;53.012;6.556;2022-12-18T09:21:29;52.90;;;23.88;;
52742;SDS011;55583;53.012;6.556;2022-12-18T09:23:57;43.47;;;21.08;;
52742;SDS011;55583;53.012;6.556;2022-12-18T09:26:23;48.33;;;22.67;;
52742;SDS011;55583;53.012;6.556;2022-12-18T09:28:49;41.28;;;20.08;;
52742;SDS011;55583;53.012;6.556;2022-12-18T09:31:16;44.80;;;20.85;;
52742;SDS011;55583;53.012;6.556;2022-12-18T09:33:43;34.72;;;18.90;;
52742;SDS011;55583;53.012;6.556;2022-12-18T09:36:12;44.25;;;18.40;;
52742;SDS011;55583;53.012;6.556;2022-12-18T09:38:39;35.78;;;18.33;;
52742;SDS011;55583;53.012;6.556;2022-12-18T09:43:50;35.20;;;17.55;;
52742;SDS011;55583;53.012;6.556;2022-12-18T09:46:20;31.23;;;16.20;;
52742;SDS011;55583;53.012;6.556;2022-12-18T09:49:03;34.10;;;16.67;;
52742;SDS011;55583;53.012;6.556;2022-12-18T09:51:36;31.63;;;15.50;;
52742;SDS011;55583;53.012;6.556;2022-12-18T09:54:14;31.30;;;15.38;;
52742;SDS011;55583;53.012;6.556;2022-12-18T09:56:45;28.27;;;14.35;;
52742;SDS011;55583;53.012;6.556;2022-12-18T10:01:51;25.48;;;13.48;;
52742;SDS011;55583;53.012;6.556;2022-12-18T10:04:17;28.92;;;13.43;;
52742;SDS011;55583;53.012;6.556;2022-12-18T10:12:08;22.05;;;12.32;;
52742;SDS011;55583;53.012;6.556;2022-12-18T10:17:28;25.02;;;12.90;;
52742;SDS011;55583;53.012;6.556;2022-12-18T10:20:03;22.85;;;13.00;;
52742;SDS011;55583;53.012;6.556;2022-12-18T10:22:48;20.55;;;10.60;;
52742;SDS011;55583;53.012;6.556;2022-12-18T10:25:23;22.98;;;11.48;;
52742;SDS011;55583;53.012;6.556;2022-12-18T10:27:51;18.63;;;10.15;;
52742;SDS011;55583;53.012;6.556;2022-12-18T10:30:21;20.80;;;10.43;;
52742;SDS011;55583;53.012;6.556;2022-12-18T10:32:48;18.75;;;9.02;;
52742;SDS011;55583;53.012;6.556;2022-12-18T10:35:24;17.92;;;9.50;;
52742;SDS011;55583;53.012;6.556;2022-12-18T10:38:02;25.58;;;10.40;;
52742;SDS011;55583;53.012;6.556;2022-12-18T10:40:30;16.88;;;9.80;;
52742;SDS011;55583;53.012;6.556;2022-12-18T10:43:10;19.20;;;9.32;;
52742;SDS011;55583;53.012;6.556;2022-12-18T10:45:37;17.92;;;9.27;;
52742;SDS011;55583;53.012;6.556;2022-12-18T10:48:04;18.02;;;9.82;;
52742;SDS011;55583;53.012;6.556;2022-12-18T10:50:42;19.63;;;9.27;;
52742;SDS011;55583;53.012;6.556;2022-12-18T10:53:13;20.08;;;9.18;;
52742;SDS011;55583;53.012;6.556;2022-12-18T10:55:45;15.13;;;8.75;;
52742;SDS011;55583;53.012;6.556;2022-12-18T10:58:28;17.60;;;8.82;;
52742;SDS011;55583;53.012;6.556;2022-12-18T11:03:31;14.15;;;7.57;;
52742;SDS011;55583;53.012;6.556;2022-12-18T11:09:01;14.57;;;6.88;;
52742;SDS011;55583;53.012;6.556;2022-12-18T11:11:27;16.98;;;7.40;;
52742;SDS011;55583;53.012;6.556;2022-12-18T11:14:04;15.10;;;7.15;;
52742;SDS011;55583;53.012;6.556;2022-12-18T11:16:36;12.68;;;6.35;;
52742;SDS011;55583;53.012;6.556;2022-12-18T11:19:10;11.32;;;6.75;;
52742;SDS011;55583;53.012;6.556;2022-12-18T11:21:41;12.73;;;6.78;;
52742;SDS011;55583;53.012;6.556;2022-12-18T11:24:14;15.25;;;6.55;;
52742;SDS011;55583;53.012;6.556;2022-12-18T11:26:46;13.40;;;7.05;;
52742;SDS011;55583;53.012;6.556;2022-12-18T11:29:35;13.40;;;7.40;;
52742;SDS011;55583;53.012;6.556;2022-12-18T11:32:12;12.43;;;6.97;;
52742;SDS011;55583;53.012;6.556;2022-12-18T11:34:48;16.63;;;7.65;;
52742;SDS011;55583;53.012;6.556;2022-12-18T11:37:18;17.13;;;8.07;;
52742;SDS011;55583;53.012;6.556;2022-12-18T11:39:46;16.60;;;8.75;;
52742;SDS011;55583;53.012;6.556;2022-12-18T11:45:04;15.60;;;8.43;;
52742;SDS011;55583;53.012;6.556;2022-12-18T11:47:42;15.80;;;8.20;;
52742;SDS011;55583;53.012;6.556;2022-12-18T11:50:17;18.85;;;8.60;;
52742;SDS011;55583;53.012;6.556;2022-12-18T11:52:47;18.08;;;9.85;;
52742;SDS011;55583;53.012;6.556;2022-12-18T11:55:13;13.93;;;8.02;;
52742;SDS011;55583;53.012;6.556;2022-12-18T11:57:54;14.20;;;7.75;;
52742;SDS011;55583;53.012;6.556;2022-12-18T12:00:23;15.25;;;8.30;;
52742;SDS011;55583;53.012;6.556;2022-12-18T12:03:13;17.58;;;7.53;;
52742;SDS011;55583;53.012;6.556;2022-12-18T12:08:51;13.52;;;8.07;;
52742;SDS011;55583;53.012;6.556;2022-12-18T12:21:58;16.77;;;7.63;;
52742;SDS011;55583;53.012;6.556;2022-12-18T12:37:52;14.00;;;7.40;;
52742;SDS011;55583;53.012;6.556;2022-12-18T12:40:31;21.40;;;8.00;;
52742;SDS011;55583;53.012;6.556;2022-12-18T12:43:15;17.77;;;7.45;;
52742;SDS011;55583;53.012;6.556;2022-12-18T12:46:12;11.82;;;7.72;;
52742;SDS011;55583;53.012;6.556;2022-12-18T12:48:52;13.80;;;7.38;;
52742;SDS011;55583;53.012;6.556;2022-12-18T12:54:02;17.30;;;8.00;;
52742;SDS011;55583;53.012;6.556;2022-12-18T13:02:30;12.82;;;7.30;;
52742;SDS011;55583;53.012;6.556;2022-12-18T13:07:54;11.90;;;6.28;;
52742;SDS011;55583;53.012;6.556;2022-12-18T13:10:25;16.42;;;7.45;;
52742;SDS011;55583;53.012;6.556;2022-12-18T13:15:43;12.90;;;6.68;;
52742;SDS011;55583;53.012;6.556;2022-12-18T13:18:16;12.05;;;6.30;;
52742;SDS011;55583;53.012;6.556;2022-12-18T13:21:01;12.40;;;6.30;;
52742;SDS011;55583;53.012;6.556;2022-12-18T13:23:35;18.55;;;6.88;;
52742;SDS011;55583;53.012;6.556;2022-12-18T13:33:43;15.13;;;7.00;;
52742;SDS011;55583;53.012;6.556;2022-12-18T13:36:13;14.00;;;6.90;;
52742;SDS011;55583;53.012;6.556;2022-12-18T13:41:37;11.82;;;6.65;;
52742;SDS011;55583;53.012;6.556;2022-12-18T13:46:47;15.18;;;7.38;;
52742;SDS011;55583;53.012;6.556;2022-12-18T13:49:25;15.45;;;7.10;;
52742;SDS011;55583;53.012;6.556;2022-12-18T13:52:14;19.27;;;7.18;;
52742;SDS011;55583;53.012;6.556;2022-12-18T13:54:43;15.13;;;6.88;;
52742;SDS011;55583;53.012;6.556;2022-12-18T13:59:55;14.87;;;7.50;;
52742;SDS011;55583;53.012;6.556;2022-12-18T14:02:23;14.05;;;6.53;;
52742;SDS011;55583;53.012;6.556;2022-12-18T14:04:50;15.48;;;7.03;;
52742;SDS011;55583;53.012;6.556;2022-12-18T14:07:17;13.68;;;7.22;;
52742;SDS011;55583;53.012;6.556;2022-12-18T14:09:54;15.65;;;6.65;;
52742;SDS011;55583;53.012;6.556;2022-12-18T14:12:23;16.83;;;7.10;;
52742;SDS011;55583;53.012;6.556;2022-12-18T14:18:02;23.48;;;8.30;;
52742;SDS011;55583;53.012;6.556;2022-12-18T14:20:44;23.65;;;8.93;;
52742;SDS011;55583;53.012;6.556;2022-12-18T14:25:57;14.32;;;7.32;;
52742;SDS011;55583;53.012;6.556;2022-12-18T14:28:23;18.27;;;7.57;;
52742;SDS011;55583;53.012;6.556;2022-12-18T14:30:50;17.15;;;7.57;;
52742;SDS011;55583;53.012;6.556;2022-12-18T14:33:17;13.73;;;7.05;;
52742;SDS011;55583;53.012;6.556;2022-12-18T14:38:34;12.32;;;7.00;;
52742;SDS011;55583;53.012;6.556;2022-12-18T14:41:05;19.77;;;8.02;;
52742;SDS011;55583;53.012;6.556;2022-12-18T14:43:36;12.35;;;7.25;;
52742;SDS011;55583;53.012;6.556;2022-12-18T14:48:57;16.23;;;7.22;;
52742;SDS011;55583;53.012;6.556;2022-12-18T14:51:26;11.45;;;6.80;;
52742;SDS011;55583;53.012;6.556;2022-12-18T14:54:04;15.10;;;7.63;;
52742;SDS011;55583;53.012;6.556;2022-12-18T14:56:42;16.42;;;6.68;;
52742;SDS011;55583;53.012;6.556;2022-12-18T14:59:14;19.60;;;8.57;;
52742;SDS011;55583;53.012;6.556;2022-12-18T15:01:46;14.23;;;8.15;;
52742;SDS011;55583;53.012;6.556;2022-12-18T15:04:33;14.65;;;7.82;;
52742;SDS011;55583;53.012;6.556;2022-12-18T15:07:05;12.95;;;7.72;;
52742;SDS011;55583;53.012;6.556;2022-12-18T15:09:36;15.52;;;7.55;;
52742;SDS011;55583;53.012;6.556;2022-12-18T15:12:02;19.88;;;9.13;;
52742;SDS011;55583;53.012;6.556;2022-12-18T15:14:32;19.38;;;8.45;;
52742;SDS011;55583;53.012;6.556;2022-12-18T15:17:01;13.98;;;8.07;;
52742;SDS011;55583;53.012;6.556;2022-12-18T15:19:36;13.02;;;7.25;;
52742;SDS011;55583;53.012;6.556;2022-12-18T15:22:17;17.50;;;9.00;;
52742;SDS011;55583;53.012;6.556;2022-12-18T15:24:47;14.93;;;7.35;;
52742;SDS011;55583;53.012;6.556;2022-12-18T15:27:20;15.13;;;8.25;;
52742;SDS011;55583;53.012;6.556;2022-12-18T15:32:33;18.17;;;9.02;;
52742;SDS011;55583;53.012;6.556;2022-12-18T15:37:34;17.98;;;8.90;;
52742;SDS011;55583;53.012;6.556;2022-12-18T15:40:00;19.33;;;8.68;;
52742;SDS011;55583;53.012;6.556;2022-12-18T15:42:27;16.35;;;8.85;;
52742;SDS011;55583;53.012;6.556;2022-12-18T15:45:12;18.20;;;9.25;;
52742;SDS011;55583;53.012;6.556;2022-12-18T15:47:38;18.13;;;9.00;;
52742;SDS011;55583;53.012;6.556;2022-12-18T15:50:04;27.58;;;8.93;;
52742;SDS011;55583;53.012;6.556;2022-12-18T15:52:36;17.52;;;9.40;;
52742;SDS011;55583;53.012;6.556;2022-12-18T15:55:13;17.90;;;10.05;;
52742;SDS011;55583;53.012;6.556;2022-12-18T15:57:59;17.20;;;8.95;;
52742;SDS011;55583;53.012;6.556;2022-12-18T16:00:25;18.95;;;9.13;;
52742;SDS011;55583;53.012;6.556;2022-12-18T16:02:50;18.92;;;9.98;;
52742;SDS011;55583;53.012;6.556;2022-12-18T16:05:16;21.60;;;9.60;;
52742;SDS011;55583;53.012;6.556;2022-12-18T16:07:43;18.38;;;10.02;;
52742;SDS011;55583;53.012;6.556;2022-12-18T16:10:09;18.55;;;10.65;;
52742;SDS011;55583;53.012;6.556;2022-12-18T16:12:35;20.85;;;11.20;;
52742;SDS011;55583;53.012;6.556;2022-12-18T16:15:01;19.38;;;9.30;;
52742;SDS011;55583;53.012;6.556;2022-12-18T16:17:27;16.98;;;9.95;;
52742;SDS011;55583;53.012;6.556;2022-12-18T16:19:53;17.42;;;9.50;;
52742;SDS011;55583;53.012;6.556;2022-12-18T16:22:22;17.73;;;9.70;;
52742;SDS011;55583;53.012;6.556;2022-12-18T16:24:51;16.20;;;9.48;;
52742;SDS011;55583;53.012;6.556;2022-12-18T16:27:18;20.02;;;9.65;;
52742;SDS011;55583;53.012;6.556;2022-12-18T16:29:44;20.48;;;10.23;;
52742;SDS011;55583;53.012;6.556;2022-12-18T16:32:14;17.27;;;9.70;;
52742;SDS011;55583;53.012;6.556;2022-12-18T16:34:41;18.20;;;9.38;;
52742;SDS011;55583;53.012;6.556;2022-12-18T16:37:08;23.70;;;10.77;;
52742;SDS011;55583;53.012;6.556;2022-12-18T16:39:35;19.00;;;10.20;;
52742;SDS011;55583;53.012;6.556;2022-12-18T16:42:06;19.73;;;10.73;;
52742;SDS011;55583;53.012;6.556;2022-12-18T16:44:41;20.30;;;9.60;;
52742;SDS011;55583;53.012;6.556;2022-12-18T16:47:08;17.38;;;10.75;;